createdAt,value
2019-01-17T00:00:45.826Z,45.1
2019-01-17T00:01:47.280Z,43.5
2019-01-17T00:02:45.828Z,42.5
2019-01-17T00:03:45.828Z,41.3
2019-01-17T00:04:45.810Z,40.8
2019-01-17T00:05:45.824Z,40.1
2019-01-17T00:06:45.865Z,38.8
2019-01-17T00:07:45.809Z,37.9
2019-01-17T00:08:45.823Z,37
2019-01-17T00:09:45.878Z,35.7
2019-01-17T00:10:45.808Z,35.5
2019-01-17T00:11:45.826Z,35.2
2019-01-17T00:12:45.827Z,34.9
2019-01-17T00:13:45.831Z,33.2
2019-01-17T00:14:45.906Z,32.5
2019-01-17T00:15:45.792Z,31.6
2019-01-17T00:16:45.821Z,31.7
2019-01-17T00:17:45.808Z,31.4
2019-01-17T00:18:45.822Z,31.2
2019-01-17T00:19:45.906Z,31.1
2019-01-17T00:20:45.804Z,31
2019-01-17T00:21:45.809Z,30
2019-01-17T00:22:45.846Z,29.9
2019-01-17T00:23:45.824Z,29.9
2019-01-17T00:24:45.952Z,29.3
2019-01-17T00:25:45.826Z,29
2019-01-17T00:26:45.785Z,28.1
2019-01-17T00:27:45.804Z,26.5
2019-01-17T00:28:45.832Z,26.2
2019-01-17T00:29:45.883Z,26.4
2019-01-17T00:30:45.823Z,25.9
2019-01-17T00:31:45.825Z,26
2019-01-17T00:32:45.888Z,25.9
2019-01-17T00:33:45.879Z,24.7
2019-01-17T00:34:45.819Z,23.9
2019-01-17T00:35:45.868Z,23.3
2019-01-17T00:36:45.822Z,24.2
2019-01-17T00:37:45.867Z,24.4
2019-01-17T00:38:45.822Z,24.1
2019-01-17T00:39:45.823Z,23.6
2019-01-17T00:40:45.888Z,23.4
2019-01-17T00:41:45.826Z,23.6
2019-01-17T00:42:45.810Z,23.4
2019-01-17T00:43:45.801Z,22.3
2019-01-17T00:44:45.798Z,22
2019-01-17T00:45:45.871Z,21.8
2019-01-17T00:46:45.801Z,22
2019-01-17T00:47:45.884Z,23.5
2019-01-17T00:48:45.802Z,24.1
2019-01-17T00:49:45.791Z,24.6
2019-01-17T00:50:45.799Z,23.9
2019-01-17T00:51:45.864Z,23.5
2019-01-17T00:52:45.794Z,23.4
2019-01-17T00:53:45.774Z,24.5
2019-01-17T00:54:45.806Z,24.2
2019-01-17T00:55:45.877Z,24.5
2019-01-17T00:56:45.825Z,25.2
2019-01-17T00:57:45.804Z,25.5
2019-01-17T00:58:45.859Z,26.9
2019-01-17T00:59:45.799Z,27.6
2019-01-17T01:00:45.798Z,28.6
2019-01-17T01:01:45.788Z,29.5
2019-01-17T01:02:45.802Z,30.3
2019-01-17T01:03:45.802Z,32
2019-01-17T01:04:45.802Z,33.5
2019-01-17T01:05:45.838Z,34.6
2019-01-17T01:06:45.799Z,35.7
2019-01-17T01:07:45.780Z,36.3
2019-01-17T01:08:45.879Z,36.6
2019-01-17T01:09:45.768Z,36.7
2019-01-17T01:10:45.791Z,37.6
2019-01-17T01:11:45.789Z,38.7
2019-01-17T01:12:45.832Z,38.6
2019-01-17T01:13:45.901Z,39.4
2019-01-17T01:14:45.913Z,40
2019-01-17T01:15:45.794Z,40.8
2019-01-17T01:16:45.792Z,42.2
2019-01-17T01:17:45.787Z,42.3
2019-01-17T01:18:45.844Z,43.1
2019-01-17T01:19:45.784Z,43.4
2019-01-17T01:20:45.837Z,43.9
2019-01-17T01:21:45.850Z,42.7
2019-01-17T01:22:45.792Z,43.1
2019-01-17T01:23:45.800Z,43.6
2019-01-17T01:24:45.775Z,44.7
2019-01-17T01:25:45.857Z,45.5
2019-01-17T01:26:45.760Z,47
2019-01-17T01:27:45.972Z,48.4
2019-01-17T01:28:45.788Z,49.4
2019-01-17T01:29:45.792Z,49.4
2019-01-17T01:30:45.790Z,49.7
2019-01-17T01:31:45.766Z,50.3
2019-01-17T01:32:45.806Z,50.2
2019-01-17T01:33:45.785Z,50.1
2019-01-17T01:34:45.787Z,51.2
2019-01-17T01:35:45.855Z,51.2
2019-01-17T01:36:45.764Z,51.5
2019-01-17T01:37:45.774Z,51.3
2019-01-17T01:38:45.790Z,51.4
2019-01-17T01:39:45.785Z,52.2
2019-01-17T01:40:45.861Z,51.9
2019-01-17T01:41:45.792Z,51.1
2019-01-17T01:42:45.751Z,50.5
2019-01-17T01:43:45.837Z,49.5
2019-01-17T01:44:45.792Z,49.7
2019-01-17T01:45:45.768Z,50.2
2019-01-17T01:46:45.836Z,49.7
2019-01-17T01:47:45.842Z,49.6
2019-01-17T01:48:45.742Z,49.1
2019-01-17T01:49:45.782Z,48.1
2019-01-17T01:50:45.780Z,48.6
2019-01-17T01:51:45.779Z,48.1
2019-01-17T01:52:45.831Z,47.3
2019-01-17T01:53:45.764Z,46
2019-01-17T01:54:45.757Z,45
2019-01-17T01:55:45.776Z,44.9
2019-01-17T01:56:45.755Z,44.8
2019-01-17T01:57:45.775Z,43.7
2019-01-17T01:58:45.827Z,43
2019-01-17T01:59:45.762Z,43.3
2019-01-17T02:00:45.783Z,43.9
2019-01-17T02:01:45.756Z,43.9
2019-01-17T02:02:45.787Z,43.6
2019-01-17T02:03:45.849Z,43.2
2019-01-17T02:04:45.760Z,43.3
2019-01-17T02:05:45.783Z,43
2019-01-17T02:06:45.754Z,43.9
2019-01-17T02:07:45.753Z,44.1
2019-01-17T02:08:45.822Z,43.3
2019-01-17T02:09:45.767Z,43.4
2019-01-17T02:10:45.813Z,43.6
2019-01-17T02:11:45.791Z,45.6
2019-01-17T02:12:45.770Z,45.8
2019-01-17T02:13:45.775Z,46.8
2019-01-17T02:14:45.763Z,47.1
2019-01-17T02:15:45.822Z,47.4
2019-01-17T02:16:45.747Z,47.1
2019-01-17T02:17:45.765Z,47
2019-01-17T02:18:45.750Z,47.1
2019-01-17T02:19:45.742Z,47.7
2019-01-17T02:20:45.834Z,48.6
2019-01-17T02:21:45.812Z,48.3
2019-01-17T02:22:45.755Z,49.2
2019-01-17T02:23:45.769Z,49.5
2019-01-17T02:24:45.759Z,48.9
2019-01-17T02:25:45.760Z,46.9
2019-01-17T02:26:45.795Z,46.1
2019-01-17T02:27:45.743Z,45.5
2019-01-17T02:28:45.765Z,44
2019-01-17T02:29:45.742Z,43.7
2019-01-17T02:30:45.773Z,43.2
2019-01-17T02:31:45.759Z,42.7
2019-01-17T02:32:45.751Z,42.2
2019-01-17T02:33:45.808Z,41.4
2019-01-17T02:34:45.747Z,41
2019-01-17T02:35:45.756Z,40.9
2019-01-17T02:36:45.823Z,40.2
2019-01-17T02:37:45.730Z,39.7
2019-01-17T02:38:45.755Z,39.8
2019-01-17T02:39:45.816Z,39.1
2019-01-17T02:40:45.731Z,39.4
2019-01-17T02:41:45.757Z,40.1
2019-01-17T02:42:45.789Z,40.9
2019-01-17T02:43:45.749Z,41.9
2019-01-17T02:44:45.755Z,42.8
2019-01-17T02:45:45.747Z,43.3
2019-01-17T02:46:45.820Z,44.5
2019-01-17T02:47:45.730Z,44.2
2019-01-17T02:48:45.795Z,44.5
2019-01-17T02:49:45.750Z,45.2
2019-01-17T02:50:45.763Z,46
2019-01-17T02:51:45.753Z,46.4
2019-01-17T02:52:45.744Z,46.4
2019-01-17T02:53:45.811Z,46.5
2019-01-17T02:54:45.744Z,46.6
2019-01-17T02:55:45.754Z,46.7
2019-01-17T02:56:45.742Z,46.9
2019-01-17T02:57:45.740Z,47.2
2019-01-17T02:58:45.794Z,47.3
2019-01-17T02:59:45.743Z,47
2019-01-17T03:00:45.818Z,46.9
2019-01-17T03:01:45.745Z,47.3
2019-01-17T03:02:45.748Z,48
2019-01-17T03:03:45.804Z,48.2
2019-01-17T03:04:45.725Z,48.1
2019-01-17T03:05:45.815Z,48.5
2019-01-17T03:06:45.726Z,48.7
2019-01-17T03:07:45.739Z,48.9
2019-01-17T03:08:45.726Z,49
2019-01-17T03:09:45.723Z,50.4
2019-01-17T03:10:45.718Z,51.4
2019-01-17T03:11:45.735Z,52.2
2019-01-17T03:12:45.749Z,51.2
2019-01-17T03:13:47.562Z,50.1
2019-01-17T03:14:45.747Z,49.4
2019-01-17T03:15:45.717Z,49.1
2019-01-17T03:16:45.728Z,48.5
2019-01-17T03:17:45.734Z,47.9
2019-01-17T03:18:45.777Z,47.1
2019-01-17T03:19:45.712Z,46.9
2019-01-17T03:20:45.798Z,48.5
2019-01-17T03:21:45.794Z,49.3
2019-01-17T03:22:45.735Z,49.2
2019-01-17T03:23:45.721Z,49.7
2019-01-17T03:24:45.731Z,49.8
2019-01-17T03:25:45.739Z,48.8
2019-01-17T03:26:45.764Z,48.1
2019-01-17T03:27:45.731Z,48.7
2019-01-17T03:28:45.792Z,48.3
2019-01-17T03:29:45.796Z,47.4
2019-01-17T03:30:45.723Z,47.3
2019-01-17T03:31:45.725Z,47.5
2019-01-17T03:32:45.749Z,46.4
2019-01-17T03:33:45.803Z,46.5
2019-01-17T03:34:45.717Z,47.1
2019-01-17T03:35:45.729Z,47.2
2019-01-17T03:36:45.708Z,47.9
2019-01-17T03:37:45.721Z,47.5
2019-01-17T03:38:45.806Z,47.6
2019-01-17T03:39:45.720Z,47.2
2019-01-17T03:40:45.715Z,46.6
2019-01-17T03:41:45.794Z,47.1
2019-01-17T03:42:45.718Z,47.7
2019-01-17T03:43:45.702Z,48.4
2019-01-17T03:44:45.769Z,49
2019-01-17T03:45:45.708Z,48.5
2019-01-17T03:46:45.718Z,48.9
2019-01-17T03:47:45.780Z,50.1
2019-01-17T03:48:45.706Z,50.5
2019-01-17T03:49:45.702Z,50.6
2019-01-17T03:50:45.701Z,49.6
2019-01-17T03:51:45.715Z,49.4
2019-01-17T03:52:45.752Z,48.8
2019-01-17T03:53:45.705Z,48.5
2019-01-17T03:54:50.074Z,49.1
2019-01-17T03:55:45.695Z,49.3
2019-01-17T03:56:45.794Z,49.1
2019-01-17T03:57:45.795Z,48.8
2019-01-17T03:58:45.700Z,49
2019-01-17T03:59:45.701Z,48.3
2019-01-17T04:00:45.703Z,47.6
2019-01-17T04:01:45.723Z,47.6
2019-01-17T04:02:45.762Z,47.4
2019-01-17T04:03:45.765Z,46.9
2019-01-17T04:04:45.671Z,46.5
2019-01-17T04:05:45.702Z,48
2019-01-17T04:06:45.766Z,48.3
2019-01-17T04:07:45.779Z,47.8
2019-01-17T04:08:45.689Z,47.3
2019-01-17T04:09:45.695Z,47.4
2019-01-17T04:10:45.705Z,47.3
2019-01-17T04:11:45.691Z,47.3
2019-01-17T04:12:45.778Z,48.1
2019-01-17T04:13:45.706Z,48
2019-01-17T04:14:45.700Z,47.8
2019-01-17T04:15:45.749Z,48.4
2019-01-17T04:16:45.690Z,48.7
2019-01-17T04:17:45.699Z,49.2
2019-01-17T04:18:45.713Z,50.1
2019-01-17T04:19:45.687Z,49.1
2019-01-17T04:20:45.717Z,49.1
2019-01-17T04:21:45.697Z,50.2
2019-01-17T04:22:45.684Z,51
2019-01-17T04:23:45.696Z,50.9
2019-01-17T04:24:45.718Z,50
2019-01-17T04:25:45.754Z,49.5
2019-01-17T04:26:45.691Z,48.7
2019-01-17T04:27:45.694Z,48.4
2019-01-17T04:28:45.710Z,48
2019-01-17T04:29:45.738Z,47
2019-01-17T04:30:45.780Z,46.1
2019-01-17T04:31:45.685Z,45.3
2019-01-17T04:32:45.673Z,45.3
2019-01-17T04:33:45.689Z,45.2
2019-01-17T04:34:45.676Z,45.6
2019-01-17T04:35:45.778Z,45.7
2019-01-17T04:36:45.659Z,44.9
2019-01-17T04:37:45.712Z,44.5
2019-01-17T04:38:45.678Z,44.1
2019-01-17T04:39:45.704Z,44
2019-01-17T04:40:45.688Z,43.6
2019-01-17T04:41:45.673Z,43.2
2019-01-17T04:42:45.742Z,42.4
2019-01-17T04:43:45.743Z,42.5
2019-01-17T04:44:45.691Z,42.3
2019-01-17T04:45:45.697Z,42
2019-01-17T04:46:45.709Z,41.6
2019-01-17T04:47:45.727Z,42
2019-01-17T04:48:45.668Z,42.8
2019-01-17T04:49:45.698Z,43
2019-01-17T04:50:45.665Z,44.4
2019-01-17T04:51:45.690Z,44.8
2019-01-17T04:52:45.721Z,45.2
2019-01-17T04:53:45.658Z,45.5
2019-01-17T04:54:45.682Z,44.9
2019-01-17T04:55:45.678Z,45.6
2019-01-17T04:56:45.689Z,45.8
2019-01-17T04:57:45.747Z,45.8
2019-01-17T04:58:45.669Z,45.3
2019-01-17T04:59:45.693Z,44.7
2019-01-17T05:00:45.682Z,44.4
2019-01-17T05:01:45.676Z,43.4
2019-01-17T05:02:45.741Z,44.7
2019-01-17T05:03:45.682Z,45
2019-01-17T05:04:45.659Z,45.8
2019-01-17T05:05:45.692Z,45.5
2019-01-17T05:06:45.756Z,45.7
2019-01-17T05:07:45.676Z,46.1
2019-01-17T05:08:45.674Z,45.2
2019-01-17T05:09:45.667Z,45.3
2019-01-17T05:10:45.732Z,45
2019-01-17T05:11:45.673Z,45.1
2019-01-17T05:12:45.661Z,46.2
2019-01-17T05:13:45.688Z,46.2
2019-01-17T05:14:45.657Z,45.5
2019-01-17T05:15:45.706Z,44.5
2019-01-17T05:16:45.664Z,45.2
2019-01-17T05:17:45.669Z,45.6
2019-01-17T05:18:45.665Z,46.7
2019-01-17T05:19:45.752Z,47.3
2019-01-17T05:20:45.701Z,48
2019-01-17T05:21:45.663Z,49
2019-01-17T05:22:45.660Z,48.9
2019-01-17T05:23:45.652Z,48.6
2019-01-17T05:24:45.665Z,48.7
2019-01-17T05:25:45.727Z,49
2019-01-17T05:26:45.637Z,49.8
2019-01-17T05:27:45.745Z,49.4
2019-01-17T05:28:45.664Z,49.3
2019-01-17T05:29:45.658Z,49
2019-01-17T05:30:45.772Z,48.5
2019-01-17T05:32:49.654Z,5
2019-01-17T05:33:49.658Z,8.4
2019-01-17T05:34:49.707Z,10.7
2019-01-17T05:35:49.671Z,13.1
2019-01-17T05:36:50.745Z,14.5
2019-01-17T05:37:49.651Z,16.9
2019-01-17T05:38:49.651Z,20.5
2019-01-17T05:39:49.707Z,23.4
2019-01-17T05:40:49.657Z,25.2
2019-01-17T05:41:49.647Z,26.8
2019-01-17T05:42:49.620Z,27.2
2019-01-17T05:43:49.722Z,27.8
2019-01-17T05:44:49.720Z,29.2
2019-01-17T05:45:49.637Z,28.8
2019-01-17T05:46:49.656Z,29.3
2019-01-17T05:47:49.628Z,30.1
2019-01-17T05:48:49.651Z,30.6
2019-01-17T05:49:49.705Z,30.5
2019-01-17T05:50:49.647Z,31.1
2019-01-17T05:51:49.638Z,31.9
2019-01-17T05:52:49.648Z,32.6
2019-01-17T05:53:49.635Z,33.4
2019-01-17T05:54:49.728Z,34
2019-01-17T05:55:49.715Z,34.1
2019-01-17T05:56:49.648Z,34.8
2019-01-17T05:57:49.660Z,35.3
2019-01-17T05:58:49.633Z,36.2
2019-01-17T05:59:49.707Z,36.9
2019-01-17T06:00:49.661Z,38.3
2019-01-17T06:01:49.663Z,39.5
2019-01-17T06:02:49.682Z,39.9
2019-01-17T06:03:49.658Z,40.8
2019-01-17T06:04:49.623Z,42.1
2019-01-17T06:05:49.637Z,41.7
2019-01-17T06:06:49.745Z,42.4
2019-01-17T06:07:49.637Z,42.2
2019-01-17T06:08:49.637Z,42.6
2019-01-17T06:09:49.623Z,42.5
2019-01-17T06:10:49.660Z,43
2019-01-17T06:11:49.717Z,43.8
2019-01-17T06:12:49.712Z,44.8
2019-01-17T06:13:49.613Z,45.5
2019-01-17T06:14:49.677Z,45.3
2019-01-17T06:15:49.623Z,45.6
2019-01-17T06:16:49.691Z,46
2019-01-17T06:17:49.652Z,46.3
2019-01-17T06:18:49.647Z,46.4
2019-01-17T06:19:59.496Z,46.5
2019-01-17T06:20:49.598Z,45.8
2019-01-17T06:21:49.672Z,45.4
2019-01-17T06:22:49.628Z,45.8
2019-01-17T06:23:49.615Z,46.3
2019-01-17T06:24:49.680Z,46.8
2019-01-17T06:25:49.640Z,47.1
2019-01-17T06:26:49.621Z,47
2019-01-17T06:27:49.629Z,47.6
2019-01-17T06:28:49.626Z,47.5
2019-01-17T06:29:49.703Z,46.7
2019-01-17T06:30:49.627Z,45.9
2019-01-17T06:31:49.627Z,45
2019-01-17T06:32:49.674Z,45.1
2019-01-17T06:33:49.638Z,45.2
2019-01-17T06:34:49.640Z,45.2
2019-01-17T06:35:49.630Z,44.3
2019-01-17T06:36:49.678Z,43.3
2019-01-17T06:37:49.659Z,42.7
2019-01-17T06:38:49.694Z,42.7
2019-01-17T06:39:49.624Z,42.8
2019-01-17T06:40:49.687Z,42.9
2019-01-17T06:41:49.617Z,41.8
2019-01-17T06:42:49.682Z,41.2
2019-01-17T06:43:49.630Z,41.3
2019-01-17T06:44:49.631Z,41.1
2019-01-17T06:45:49.705Z,40.5
2019-01-17T06:46:49.602Z,39.8
2019-01-17T06:47:49.619Z,39.8
2019-01-17T06:48:49.610Z,39.4
2019-01-17T06:49:49.679Z,38.6
2019-01-17T06:50:49.600Z,38.3
2019-01-17T06:51:49.620Z,37.9
2019-01-17T06:52:49.599Z,38
2019-01-17T06:53:49.609Z,37.1
2019-01-17T06:54:49.684Z,36.9
2019-01-17T06:55:49.622Z,36.2
2019-01-17T06:56:49.601Z,35.7
2019-01-17T06:57:49.628Z,36
2019-01-17T06:58:49.604Z,35.4
2019-01-17T06:59:49.606Z,35
2019-01-17T07:00:49.691Z,35
2019-01-17T07:01:49.612Z,35.7
2019-01-17T07:02:49.591Z,36.2
2019-01-17T07:03:49.603Z,36.3
2019-01-17T07:04:49.640Z,36.4
2019-01-17T07:05:49.589Z,36.4
2019-01-17T07:06:49.595Z,36.1
2019-01-17T07:07:49.608Z,36.1
2019-01-17T07:08:49.620Z,36
2019-01-17T07:09:49.765Z,35.2
2019-01-17T07:10:49.609Z,35.2
2019-01-17T07:11:49.618Z,34.1
2019-01-17T07:12:49.608Z,33.2
2019-01-17T07:13:49.592Z,32.8
2019-01-17T07:14:49.644Z,31.5
2019-01-17T07:15:49.602Z,30.2
2019-01-17T07:16:49.598Z,29.9
2019-01-17T07:17:49.610Z,30.1
2019-01-17T07:18:49.576Z,30.4
2019-01-17T07:19:49.605Z,30.5
2019-01-17T07:20:49.638Z,30.1
2019-01-17T07:21:49.676Z,29.6
2019-01-17T07:22:49.587Z,29.6
2019-01-17T07:23:49.575Z,29.8
2019-01-17T07:24:49.605Z,29.7
2019-01-17T07:25:49.560Z,29.6
2019-01-17T07:26:49.677Z,29.6
2019-01-17T07:27:49.577Z,29.3
2019-01-17T07:28:49.593Z,28.9
2019-01-17T07:29:49.592Z,29.4
2019-01-17T07:30:49.655Z,29.3
2019-01-17T07:31:49.563Z,30.3
2019-01-17T07:32:49.586Z,30.9
2019-01-17T07:33:49.896Z,31.9
2019-01-17T07:34:49.604Z,32
2019-01-17T07:35:49.663Z,31.9
2019-01-17T07:36:49.594Z,32.7
2019-01-17T07:37:49.582Z,33.4
2019-01-17T07:38:49.724Z,33.5
2019-01-17T07:39:49.588Z,33.7
2019-01-17T07:40:49.567Z,33.7
2019-01-17T07:41:49.644Z,33.3
2019-01-17T07:42:49.571Z,32.7
2019-01-17T07:43:49.595Z,31.9
2019-01-17T07:44:49.590Z,32.1
2019-01-17T07:45:49.599Z,32.2
2019-01-17T07:46:49.594Z,32
2019-01-17T07:47:51.782Z,31.5
2019-01-17T07:48:49.594Z,31.6
2019-01-17T07:49:49.567Z,31.1
2019-01-17T07:50:49.558Z,31.4
2019-01-17T07:51:49.575Z,31.4
2019-01-17T07:52:50.464Z,31.7
2019-01-17T07:53:52.706Z,32.6
2019-01-17T07:54:51.996Z,32.9
2019-01-17T07:55:52.782Z,33.4
2019-01-17T07:56:49.827Z,33.9
2019-01-17T07:57:50.179Z,33.8
2019-01-17T07:58:49.630Z,33.8
2019-01-17T07:59:49.583Z,33.2
2019-01-17T08:00:49.589Z,33
2019-01-17T08:01:51.346Z,32.2
2019-01-17T08:02:49.619Z,32.2
2019-01-17T08:03:49.626Z,32
2019-01-17T08:04:49.568Z,31.9
2019-01-17T08:05:49.570Z,32.3
2019-01-17T08:06:49.576Z,32.4
2019-01-17T08:07:49.557Z,32
2019-01-17T08:08:49.629Z,31.6
2019-01-17T08:09:49.554Z,31.4
2019-01-17T08:10:53.863Z,30.9
2019-01-17T08:11:51.063Z,30.5
2019-01-17T08:12:49.573Z,30.5
2019-01-17T08:13:49.579Z,30.1
2019-01-17T08:14:49.551Z,29.9
2019-01-17T08:15:49.564Z,29.5
2019-01-17T08:16:49.547Z,29.2
2019-01-17T08:17:49.564Z,28.6
2019-01-17T08:18:49.632Z,28.1
2019-01-17T08:19:49.611Z,28
2019-01-17T08:20:49.605Z,27.7
2019-01-17T08:21:49.574Z,27.6
2019-01-17T08:22:49.582Z,27.4
2019-01-17T08:23:49.562Z,26.5
2019-01-17T08:24:49.623Z,26.2
2019-01-17T08:25:54.124Z,26
2019-01-17T08:26:49.558Z,26.9
2019-01-17T08:27:49.558Z,28.3
2019-01-17T08:28:49.572Z,28.2
2019-01-17T08:29:49.628Z,28.7
2019-01-17T08:30:49.625Z,29.5
2019-01-17T08:31:49.554Z,30.1
2019-01-17T08:32:49.629Z,30.2
2019-01-17T08:33:49.639Z,30.2
2019-01-17T08:34:49.563Z,29.8
2019-01-17T08:35:49.613Z,29.8
2019-01-17T08:36:49.621Z,29.9
2019-01-17T08:37:49.533Z,29.7
2019-01-17T08:38:49.553Z,29.8
2019-01-17T08:39:49.569Z,29.6
2019-01-17T08:40:49.608Z,28.7
2019-01-17T08:41:49.552Z,28.8
2019-01-17T08:42:49.518Z,28.6
2019-01-17T08:43:49.534Z,28.9
2019-01-17T08:44:49.539Z,29
2019-01-17T08:45:49.589Z,29.2
2019-01-17T08:46:49.612Z,28.2
2019-01-17T08:47:49.516Z,28.4
2019-01-17T08:48:49.530Z,28.2
2019-01-17T08:49:49.553Z,28.8
2019-01-17T08:50:49.526Z,28.7
2019-01-17T08:51:49.587Z,29.4
2019-01-17T08:52:49.548Z,29.6
2019-01-17T08:53:49.516Z,30.2
2019-01-17T08:54:49.537Z,30.5
2019-01-17T08:55:49.603Z,30.3
2019-01-17T08:56:49.540Z,30.1
2019-01-17T08:57:49.547Z,29.7
2019-01-17T08:58:49.597Z,29.3
2019-01-17T08:59:49.555Z,29.5
2019-01-17T09:00:49.540Z,29.5
2019-01-17T09:01:49.558Z,29.8
2019-01-17T09:02:49.624Z,29.4
2019-01-17T09:03:49.514Z,29.9
2019-01-17T09:04:49.596Z,30.4
2019-01-17T09:05:49.521Z,30.3
2019-01-17T09:06:49.585Z,30.4
2019-01-17T09:07:49.521Z,30.8
2019-01-17T09:08:49.610Z,30.6
2019-01-17T09:09:49.529Z,30.5
2019-01-17T09:10:49.538Z,30.4
2019-01-17T09:11:49.527Z,30.8
2019-01-17T09:12:49.537Z,30.7
2019-01-17T09:13:49.607Z,30.8
2019-01-17T09:14:49.593Z,31.6
2019-01-17T09:15:49.515Z,31.4
2019-01-17T09:16:49.515Z,31.3
2019-01-17T09:17:49.545Z,31
2019-01-17T09:18:49.546Z,30.4
2019-01-17T09:19:49.587Z,30.8
2019-01-17T09:20:49.607Z,30.8
2019-01-17T09:21:49.517Z,30.1
2019-01-17T09:22:49.523Z,29.8
2019-01-17T09:23:49.514Z,28.9
2019-01-17T09:24:49.515Z,29.2
2019-01-17T09:25:49.597Z,28.3
2019-01-17T09:26:49.530Z,28.2
2019-01-17T09:27:49.546Z,28.4
2019-01-17T09:28:49.535Z,28.8
2019-01-17T09:29:49.597Z,28.7
2019-01-17T09:30:49.529Z,29.2
2019-01-17T09:31:49.575Z,29.7
2019-01-17T09:32:49.544Z,30.2
2019-01-17T09:33:49.584Z,29.9
2019-01-17T09:34:49.510Z,30.6
2019-01-17T09:35:49.565Z,31.4
2019-01-17T09:36:49.578Z,32.2
2019-01-17T09:37:49.507Z,32.9
2019-01-17T09:38:49.528Z,33.8
2019-01-17T09:39:49.509Z,33.9
2019-01-17T09:40:49.583Z,35.3
2019-01-17T09:41:49.561Z,35.3
2019-01-17T09:42:49.508Z,35.6
2019-01-17T09:43:49.527Z,36.4
2019-01-17T09:44:49.586Z,36.8
2019-01-17T09:45:49.596Z,36.7
2019-01-17T09:46:49.521Z,36.2
2019-01-17T09:47:49.515Z,35.4
2019-01-17T09:48:49.525Z,35.3
2019-01-17T09:49:49.506Z,35.3
2019-01-17T09:50:49.588Z,36.4
2019-01-17T09:51:49.504Z,36.9
2019-01-17T09:52:49.523Z,36.2
2019-01-17T09:53:49.504Z,36.3
2019-01-17T09:54:49.555Z,36.6
2019-01-17T09:55:49.575Z,37.2
2019-01-17T09:56:49.501Z,37.6
2019-01-17T09:57:49.524Z,37.7
2019-01-17T09:58:49.499Z,38.1
2019-01-17T09:59:49.527Z,38.2
2019-01-17T10:00:49.608Z,39
2019-01-17T10:01:49.517Z,38.1
2019-01-17T10:02:49.598Z,38.4
2019-01-17T10:03:49.506Z,38.5
2019-01-17T10:04:49.516Z,38.2
2019-01-17T10:05:49.496Z,38.2
2019-01-17T10:06:49.527Z,38.8
2019-01-17T10:07:49.591Z,38.5
2019-01-17T10:08:50.774Z,38.9
2019-01-17T10:09:49.483Z,38.7
2019-01-17T10:10:49.520Z,37.4
2019-01-17T10:11:49.515Z,37.6
2019-01-17T10:12:49.575Z,37.7
2019-01-17T10:13:49.521Z,37.3
2019-01-17T10:14:49.500Z,37.4
2019-01-17T10:15:49.528Z,37.1
2019-01-17T10:16:49.516Z,36.8
2019-01-17T10:17:49.519Z,36.1
2019-01-17T10:18:49.509Z,36.5
2019-01-17T10:19:49.579Z,36.5
2019-01-17T10:20:49.489Z,36.8
2019-01-17T10:21:49.496Z,36.9
2019-01-17T10:22:49.548Z,36.9
2019-01-17T10:23:49.581Z,37.1
2019-01-17T10:24:49.515Z,37.7
2019-01-17T10:25:49.493Z,37.8
2019-01-17T10:26:49.506Z,38
2019-01-17T10:27:49.506Z,38.4
2019-01-17T10:28:49.528Z,38.3
2019-01-17T10:29:49.509Z,38.2
2019-01-17T10:30:49.572Z,37.6
2019-01-17T10:31:49.500Z,37
2019-01-17T10:32:49.498Z,36.8
2019-01-17T10:33:49.558Z,37.7
2019-01-17T10:34:49.510Z,37.4
2019-01-17T10:35:49.504Z,37.6
2019-01-17T10:36:49.490Z,37.6
2019-01-17T10:37:49.586Z,38.5
2019-01-17T10:38:49.518Z,39
2019-01-17T10:39:49.571Z,38.8
2019-01-17T10:40:49.521Z,38.3
2019-01-17T10:41:49.510Z,37.6
2019-01-17T10:42:49.525Z,36.9
2019-01-17T10:43:49.500Z,37.5
2019-01-17T10:44:49.511Z,37.5
2019-01-17T10:45:49.497Z,37.8
2019-01-17T10:46:49.575Z,37.7
2019-01-17T10:47:49.468Z,36.9
2019-01-17T10:48:49.547Z,36.6
2019-01-17T10:49:49.516Z,36.6
2019-01-17T10:50:49.569Z,36.9
2019-01-17T10:51:49.565Z,37.2
2019-01-17T10:52:49.481Z,38.2
2019-01-17T10:53:49.572Z,38.6
2019-01-17T10:54:49.633Z,38.5
2019-01-17T10:55:49.478Z,38.5
2019-01-17T10:56:49.495Z,38.9
2019-01-17T10:57:49.496Z,39.1
2019-01-17T10:58:49.472Z,39.2
2019-01-17T10:59:49.576Z,39.3
2019-01-17T11:00:49.508Z,39.2
2019-01-17T11:01:49.480Z,39.9
2019-01-17T11:02:49.479Z,39.7
2019-01-17T11:03:49.562Z,38.9
2019-01-17T11:04:49.488Z,39.5
2019-01-17T11:05:49.478Z,40.1
2019-01-17T11:06:49.569Z,40.6
2019-01-17T11:07:49.492Z,40.4
2019-01-17T11:08:49.533Z,40.6
2019-01-17T11:09:49.528Z,40.5
2019-01-17T11:10:49.491Z,40.4
2019-01-17T11:11:49.502Z,39.7
2019-01-17T11:12:49.491Z,40.5
2019-01-17T11:13:49.529Z,39.7
2019-01-17T11:14:49.474Z,40
2019-01-17T11:15:49.540Z,40.3
2019-01-17T11:16:49.488Z,40.4
2019-01-17T11:17:49.485Z,41.1
2019-01-17T11:18:49.492Z,41.6
2019-01-17T11:19:49.671Z,40.8
2019-01-17T11:20:49.488Z,41
2019-01-17T11:21:49.495Z,41
2019-01-17T11:22:49.489Z,41.6
2019-01-17T11:23:49.467Z,40.2
2019-01-17T11:24:49.538Z,39.9
2019-01-17T11:25:49.474Z,39
2019-01-17T11:26:49.475Z,38.5
2019-01-17T11:27:49.558Z,37.8
2019-01-17T11:28:49.487Z,38.7
2019-01-17T11:29:49.504Z,38.3
2019-01-17T11:30:49.567Z,38.1
2019-01-17T11:31:49.460Z,38.3
2019-01-17T11:32:49.503Z,38.8
2019-01-17T11:33:49.489Z,37.9
2019-01-17T11:34:49.537Z,37.6
2019-01-17T11:35:49.492Z,38.2
2019-01-17T11:36:49.522Z,39.1
2019-01-17T11:37:49.484Z,38.7
2019-01-17T11:38:49.470Z,37.7
2019-01-17T11:39:49.525Z,38.1
2019-01-17T11:40:49.492Z,39
2019-01-17T11:41:49.540Z,39.2
2019-01-17T11:42:49.469Z,38.2
2019-01-17T11:43:49.484Z,37.8
2019-01-17T11:44:49.536Z,37.1
2019-01-17T11:45:49.472Z,36.8
2019-01-17T11:46:49.550Z,35.8
2019-01-17T11:47:49.472Z,36.6
2019-01-17T11:48:49.493Z,37.1
2019-01-17T11:49:49.552Z,36.2
2019-01-17T11:50:49.544Z,34.9
2019-01-17T11:51:49.485Z,34.4
2019-01-17T11:52:49.477Z,34.7
2019-01-17T11:53:49.457Z,34.7
2019-01-17T11:54:49.497Z,35
2019-01-17T11:55:49.572Z,35.4
2019-01-17T11:56:49.482Z,36.5
2019-01-17T11:57:49.465Z,36.9
2019-01-17T11:58:49.547Z,37.5
2019-01-17T11:59:49.502Z,37.8
2019-01-17T12:00:49.491Z,37.8
2019-01-17T12:01:49.492Z,37.9
2019-01-17T12:02:49.547Z,38.4
2019-01-17T12:03:49.489Z,38.5
2019-01-17T12:04:49.459Z,37
2019-01-17T12:05:49.555Z,36.8
2019-01-17T12:06:49.488Z,36.8
2019-01-17T12:07:49.488Z,37.7
2019-01-17T12:08:49.494Z,37.4
2019-01-17T12:09:49.541Z,37.8
2019-01-17T12:10:49.490Z,37.9
2019-01-17T12:11:49.476Z,38.3
2019-01-17T12:12:49.500Z,38.4
2019-01-17T12:13:49.578Z,38.4
2019-01-17T12:14:49.474Z,38.9
2019-01-17T12:15:49.503Z,38.2
2019-01-17T12:16:49.485Z,36.6
2019-01-17T12:17:49.475Z,36
2019-01-17T12:18:49.539Z,34.6
2019-01-17T12:19:49.552Z,34.2
2019-01-17T12:20:49.449Z,34
2019-01-17T12:21:49.489Z,33.9
2019-01-17T12:22:49.473Z,33.7
2019-01-17T12:23:49.483Z,34.7
2019-01-17T12:24:49.561Z,35
2019-01-17T12:25:49.466Z,34.4
2019-01-17T12:26:49.497Z,34.8
2019-01-17T12:27:49.490Z,34.7
2019-01-17T12:28:49.474Z,34.9
2019-01-17T12:29:49.575Z,34.4
2019-01-17T12:30:49.473Z,32.2
2019-01-17T12:31:49.453Z,31.7
2019-01-17T12:32:49.497Z,30.3
2019-01-17T12:33:49.562Z,30.4
2019-01-17T12:34:49.545Z,30.9
2019-01-17T12:35:49.490Z,32.2
2019-01-17T12:36:49.482Z,32.4
2019-01-17T12:37:49.478Z,32.5
2019-01-17T12:38:49.569Z,32.9
2019-01-17T12:39:49.599Z,33.3
2019-01-17T12:40:49.490Z,32.7
2019-01-17T12:41:49.470Z,31.6
2019-01-17T12:42:49.562Z,31.7
2019-01-17T12:43:49.563Z,31.8
2019-01-17T12:44:49.555Z,32.4
2019-01-17T12:45:49.494Z,31.6
2019-01-17T12:46:49.485Z,31.1
2019-01-17T12:47:49.539Z,30.3
2019-01-17T12:48:49.479Z,29.6
2019-01-17T12:49:49.480Z,28.8
2019-01-17T12:50:49.482Z,28.1
2019-01-17T12:51:49.477Z,27.3
2019-01-17T12:52:49.551Z,27.1
2019-01-17T12:53:49.477Z,26.4
2019-01-17T12:54:49.483Z,26.3
2019-01-17T12:55:49.468Z,25.6
2019-01-17T12:56:53.953Z,26.5
2019-01-17T12:57:49.538Z,26.7
2019-01-17T12:58:49.452Z,25.9
2019-01-17T12:59:49.486Z,25.8
2019-01-17T13:00:49.465Z,25.1
2019-01-17T13:01:49.467Z,24.1
2019-01-17T13:02:49.537Z,23.9
2019-01-17T13:03:49.448Z,23.9
2019-01-17T13:04:49.485Z,25.7
2019-01-17T13:05:49.474Z,27.2
2019-01-17T13:06:49.532Z,27.7
2019-01-17T13:07:49.487Z,28
2019-01-17T13:08:49.541Z,28.6
2019-01-17T13:09:49.462Z,29.4
2019-01-17T13:10:49.495Z,30.2
2019-01-17T13:11:49.477Z,31.1
2019-01-17T13:12:49.516Z,31.4
2019-01-17T13:13:49.483Z,31.9
2019-01-17T13:14:49.532Z,31.4
2019-01-17T13:15:49.482Z,31.1
2019-01-17T13:16:49.554Z,32.1
2019-01-17T13:17:49.471Z,33.2
2019-01-17T13:18:49.471Z,33.8
2019-01-17T13:19:49.490Z,33.7
2019-01-17T13:20:49.472Z,34
2019-01-17T13:21:49.527Z,34
2019-01-17T13:22:49.476Z,34.5
2019-01-17T13:23:49.541Z,34.4
2019-01-17T13:24:49.538Z,34.1